Terminal Aerodrome Forecast
Issued by NWS

Home | Current Version | Previous Version | Text Only | Print | Product List | Glossary On
Versions: 1 2 3 4 5 6 7 8 9 10 11 12 13 14 15 16 17 18 19 20 21 22 23 24 25 26 27 28 29 30 31 32
000
FTUS43 KDLH 070036 AAA
TAFHIB
TAF AMD
KHIB 070036Z 0701/0724 19007G16KT 6SM -SN BR OVC017
      TEMPO 0701/0702 3SM -SN
     FM070200 24011G21KT 3SM -SN BLSN OVC015
     FM070800 26014G24KT 2SM -SN BLSN OVC010
     FM071800 27012G22KT 3SM -SN BLSN OVC010=

USA.gov is the U.S. government's official web portal to all federal, state and local government web resources and services.